地図

経路データ

SID SEASON NUMBER BASIN SUBBASIN NAME ISO_TIME NATURE LAT LON WMO_WIND WMO_PRES WMO_AGENCY TRACK_TYPE DIST2LAND LANDFALL IFLAG USA_AGENCY USA_ATCF_ID USA_LAT USA_LON USA_RECORD USA_STATUS USA_WIND USA_PRES USA_SSHS USA_R34_NE USA_R34_SE USA_R34_SW USA_R34_NW USA_R50_NE USA_R50_SE USA_R50_SW USA_R50_NW USA_R64_NE USA_R64_SE USA_R64_SW USA_R64_NW USA_POCI USA_ROCI USA_RMW USA_EYE TOKYO_LAT TOKYO_LON TOKYO_GRADE TOKYO_WIND TOKYO_PRES TOKYO_R50_DIR TOKYO_R50_LONG TOKYO_R50_SHORT TOKYO_R30_DIR TOKYO_R30_LONG TOKYO_R30_SHORT TOKYO_LAND CMA_LAT CMA_LON CMA_CAT CMA_WIND CMA_PRES HKO_LAT HKO_LON HKO_CAT HKO_WIND HKO_PRES NEWDELHI_LAT NEWDELHI_LON NEWDELHI_GRADE NEWDELHI_WIND NEWDELHI_PRES NEWDELHI_CI NEWDELHI_DP NEWDELHI_POCI REUNION_LAT REUNION_LON REUNION_TYPE REUNION_WIND REUNION_PRES REUNION_TNUM REUNION_CI REUNION_RMW REUNION_R34_NE REUNION_R34_SE REUNION_R34_SW REUNION_R34_NW REUNION_R50_NE REUNION_R50_SE REUNION_R50_SW REUNION_R50_NW REUNION_R64_NE REUNION_R64_SE REUNION_R64_SW REUNION_R64_NW BOM_LAT BOM_LON BOM_TYPE BOM_WIND BOM_PRES BOM_TNUM BOM_CI BOM_RMW BOM_R34_NE BOM_R34_SE BOM_R34_SW BOM_R34_NW BOM_R50_NE BOM_R50_SE BOM_R50_SW BOM_R50_NW BOM_R64_NE BOM_R64_SE BOM_R64_SW BOM_R64_NW BOM_ROCI BOM_POCI BOM_EYE BOM_POS_METHOD BOM_PRES_METHOD NADI_LAT NADI_LON NADI_CAT NADI_WIND NADI_PRES WELLINGTON_LAT WELLINGTON_LON WELLINGTON_WIND WELLINGTON_PRES DS824_LAT DS824_LON DS824_STAGE DS824_WIND DS824_PRES TD9636_LAT TD9636_LON TD9636_STAGE TD9636_WIND TD9636_PRES TD9635_LAT TD9635_LON TD9635_WIND TD9635_PRES TD9635_ROCI NEUMANN_LAT NEUMANN_LON NEUMANN_CLASS NEUMANN_WIND NEUMANN_PRES MLC_LAT MLC_LON MLC_CLASS MLC_WIND MLC_PRES USA_GUST BOM_GUST BOM_GUST_PER REUNION_GUST REUNION_GUST_PER USA_SEAHGT USA_SEARAD_NE USA_SEARAD_SE USA_SEARAD_SW USA_SEARAD_NW STORM_SPEED STORM_DIR
2022097N04148 2022 22 WP MM MALAKAS 2022-04-07 00:00:00 NR 3.60000 148.400 PROVISIONAL 648 646 O_____________ tcvitals WP022022 3.60000 148.400 25 1003 -1 1006 180 25 10 297
2022097N04148 2022 22 WP MM MALAKAS 2022-04-07 03:00:00 NR 3.82008 147.963 PROVISIONAL 664 663 P_____________ WP022022 3.82008 147.963 25 1003 -1 1006 180 25 9 297
2022097N04148 2022 22 WP MM MALAKAS 2022-04-07 06:00:00 NR 4.00000 147.600 PROVISIONAL 683 683 O_____________ tcvitals WP022022 4.00000 147.600 25 1003 -1 1006 180 25 7 296
2022097N04148 2022 22 WP MM MALAKAS 2022-04-07 09:00:00 NR 4.11494 147.350 PROVISIONAL 694 694 P_____________ WP022022 4.11494 147.350 27 1002 -1 1006 180 25 5 292
2022097N04148 2022 22 WP MM MALAKAS 2022-04-07 12:00:00 NR 4.20000 147.100 PROVISIONAL 706 706 O_____________ tcvitals WP022022 4.20000 147.100 29 1002 -1 1006 180 25 7 282
2022097N04148 2022 22 WP MM MALAKAS 2022-04-07 15:00:00 NR 4.26258 146.655 PROVISIONAL 717 717 P_____________ WP022022 4.26258 146.655 32 1000 -1 1005 180 25 8 284
2022097N04148 2022 22 WP MM MALAKAS 2022-04-07 18:00:00 NR 4.40000 146.300 PROVISIONAL 729 729 O_____________ tcvitals WP022022 4.40000 146.300 35 999 0 75 35 55 1004 180 25 6 324
2022097N04148 2022 22 WP MM MALAKAS 2022-04-07 21:00:00 NR 4.71997 146.320 PROVISIONAL 762 762 P_____________ WP022022 4.71997 146.320 37 999 0 65 70 1005 190 32 7 8
2022097N04148 2022 22 WP MM MALAKAS 2022-04-08 00:00:00 NR 5.10000 146.400 PROVISIONAL 807 807 O_____________ tcvitals WP022022 5.10000 146.400 39 999 0 60 95 85 1007 200 40 7 353
2022097N04148 2022 22 WP MM MALAKAS 2022-04-08 03:00:00 NR 5.41501 146.238 PROVISIONAL 841 841 P_____________ WP022022 5.41502 146.230 42 996 0 70 77 72 1005 200 40 7 326
2022097N04148 2022 22 WP MM MALAKAS 2022-04-08 06:00:00 NR 5.70000 146.000 PROVISIONAL 876 876 O_____________ tcvitals WP022022 5.70000 146.000 45 994 0 70 80 60 60 1004 200 40 7 325
2022097N04148 2022 22 WP MM MALAKAS 2022-04-08 09:00:00 NR 5.97242 145.845 PROVISIONAL 912 912 P_____________ WP022022 5.97239 145.902 42 995 0 85 103 93 70 1005 193 40 6 321
2022097N04148 2022 22 WP MM MALAKAS 2022-04-08 12:00:00 NR 6.20000 145.600 PROVISIONAL 936 936 O_____________ tcvitals WP022022 6.20000 145.700 39 997 0 100 126 126 80 1006 187 40 9 296
2022097N04148 2022 22 WP MM MALAKAS 2022-04-08 15:00:00 NR 6.35019 145.078 PROVISIONAL 967 967 P_____________ WP022022 6.35025 145.135 39 997 0 80 88 85 72 1005 203 35 10 287
2022097N04148 2022 22 WP MM MALAKAS 2022-04-08 18:00:00 NR 6.50000 144.600 PROVISIONAL 989 989 O_____________ tcvitals WP022022 6.50000 144.600 39 997 0 60 50 45 65 1004 220 30 7 304
2022097N04148 2022 22 WP MM MALAKAS 2022-04-08 21:00:00 NR 6.71987 144.535 PROVISIONAL 1013 1013 P_____________ WP022022 6.71985 144.527 39 997 0 67 52 50 72 1004 220 35 5 349
2022097N04148 2022 22 WP MM MALAKAS 2022-04-09 00:00:00 NR 7.00000 144.500 PROVISIONAL 1046 1046 O_____________ tcvitals WP022022 7.00000 144.500 39 997 0 75 55 55 80 1004 220 40 7 328
2022097N04148 2022 22 WP MM MALAKAS 2022-04-09 03:00:00 NR 7.32952 144.144 PROVISIONAL 1089 1089 P_____________ WP022022 7.32952 144.144 42 996 0 77 57 57 80 1004 225 35 11 311
2022097N04148 2022 22 WP MM MALAKAS 2022-04-09 06:00:00 NR 7.70000 143.700 PROVISIONAL 1144 1144 O_____________ tcvitals WP022022 7.70000 143.700 45 995 0 80 60 60 80 1004 230 30 11 313
2022097N04148 2022 22 WP MM MALAKAS 2022-04-09 09:00:00 NR 8.04757 143.374 PROVISIONAL 1186 1186 P_____________ WP022022 8.04757 143.374 47 993 0 10 319
2022097N04148 2022 22 WP MM MALAKAS 2022-04-09 12:00:00 NR 8.47423 143.016 PROVISIONAL 1248 1248 I_____________ tcvitals WP022022 8.47423 143.016 49 991 0 12 321
2022097N04148 2022 22 WP MM MALAKAS 2022-04-09 15:00:00 NR 9.00249 142.584 PROVISIONAL 1284 1284 P_____________ WP022022 9.00249 142.584 51 989 0 16 321
2022097N04148 2022 22 WP MM MALAKAS 2022-04-09 18:00:00 NR 9.70000 142.000 PROVISIONAL 1334 1334 O_____________ tcvitals WP022022 9.70000 142.000 54 988 0 135 135 75 115 1004 245 20 22 322
2022097N04148 2022 22 WP MM MALAKAS 2022-04-09 21:00:00 NR 10.7192 141.240 PROVISIONAL 1415 1415 P_____________ WP022022 10.7192 141.240 54 990 0 122 115 70 110 1005 240 20 25 319
2022097N04148 2022 22 WP MM MALAKAS 2022-04-10 00:00:00 NR 11.6000 140.300 PROVISIONAL 1472 1453 O_____________ tcvitals WP022022 11.6000 140.300 54 992 0 110 95 65 105 1006 235 20 23 299
2022097N04148 2022 22 WP MM MALAKAS 2022-04-10 03:00:00 NR 11.8556 139.169 PROVISIONAL 1453 1346 P_____________ WP022022 11.8556 139.169 54 988 0 107 67 65 107 1006 240 20 22 278
2022097N04148 2022 22 WP MM MALAKAS 2022-04-10 06:00:00 NR 11.9000 138.100 PROVISIONAL 1336 1259 O_____________ tcvitals WP022022 11.9000 138.100 54 985 0 105 40 65 110 1006 245 20 19 281
2022097N04148 2022 22 WP MM MALAKAS 2022-04-10 09:00:00 NR 12.2097 137.278 PROVISIONAL 1259 1208 P_____________ WP022022 12.2097 137.278 54 985 0 107 50 65 115 1005 230 22 14 291
2022097N04148 2022 22 WP MM MALAKAS 2022-04-10 12:00:00 NR 12.4000 136.800 PROVISIONAL 1208 1196 O_____________ tcvitals WP022022 12.4000 136.800 54 985 0 110 60 65 120 1005 215 25 5 262
2022097N04148 2022 22 WP MM MALAKAS 2022-04-10 15:00:00 NR 12.1423 136.782 PROVISIONAL 1203 1200 P_____________ WP022022 12.1423 136.782 54 986 0 118 70 75 117 1004 232 25 5 169
2022097N04148 2022 22 WP MM MALAKAS 2022-04-10 18:00:00 NR 11.9000 136.900 PROVISIONAL 1208 1198 O_____________ tcvitals WP022022 11.9000 136.900 54 987 0 126 80 85 115 1004 250 25 1 217
2022097N04148 2022 22 WP MM MALAKAS 2022-04-10 21:00:00 NR 12.0875 136.745 PROVISIONAL 1193 1176 P_____________ WP022022 12.0875 136.745 57 987 0 145 87 95 117 1005 262 27 7 327
2022097N04148 2022 22 WP MM MALAKAS 2022-04-11 00:00:00 NR 12.5000 136.500 PROVISIONAL 1177 1160 O_____________ tcvitals WP022022 12.5000 136.500 60 987 0 165 95 105 120 1006 275 30 10 332
2022097N04148 2022 22 WP MM MALAKAS 2022-04-11 03:00:00 NR 12.9925 136.243 PROVISIONAL 1153 1141 P_____________ WP022022 12.9925 136.243 60 984 0 137 107 127 1004 267 25 11 334
2022097N04148 2022 22 WP MM MALAKAS 2022-04-11 06:00:00 NR 13.5000 136.000 PROVISIONAL 1143 1130 O_____________ tcvitals WP022022 13.5000 136.000 60 982 0 110 120 150 1003 260 20 10 336
2022097N04148 2022 22 WP MM MALAKAS 2022-04-11 09:00:00 NR 13.9025 135.820 PROVISIONAL 1132 1125 P_____________ WP022022 13.9025 135.820 62 980 0 115 125 152 1003 260 20 8 337
2022097N04148 2022 22 WP MM MALAKAS 2022-04-11 12:00:00 NR 14.2000 135.700 PROVISIONAL 1127 1127 O_____________ tcvitals WP022022 14.2000 135.700 64 978 1 120 130 155 30 1004 260 20 5 340
2022097N04148 2022 22 WP MM MALAKAS 2022-04-11 15:00:00 NR 14.3350 135.657 PROVISIONAL 1129 1120 P_____________ WP022022 14.3350 135.657 64 979 1 123 125 152 65 1003 267 20 3 343
2022097N04148 2022 22 WP MM MALAKAS 2022-04-11 18:00:00 NR 14.5000 135.600 PROVISIONAL 1123 1109 O_____________ tcvitals WP022022 14.5000 135.600 64 980 1 126 120 150 100 1003 275 20 7 338
2022097N04148 2022 22 WP MM MALAKAS 2022-04-11 21:00:00 NR 14.9426 135.400 PROVISIONAL 1112 1104 P_____________ WP022022 14.9426 135.400 67 979 1 143 135 145 115 1004 287 22 10 337
2022097N04148 2022 22 WP MM MALAKAS 2022-04-12 00:00:00 NR 15.4000 135.200 PROVISIONAL 1107 1100 O_____________ tcvitals WP022022 15.4000 135.200 70 979 1 160 150 140 130 1005 300 25 8 338
2022097N04148 2022 22 WP MM MALAKAS 2022-04-12 03:00:00 NR 15.6449 135.097 PROVISIONAL 1104 1104 P_____________ WP022022 15.6449 135.097 77 972 1 162 150 145 125 1003 300 21 4 347
2022097N04148 2022 22 WP MM MALAKAS 2022-04-12 06:00:00 NR 15.8000 135.100 PROVISIONAL 1111 1111 O_____________ tcvitals WP022022 15.8000 135.100 84 965 2 165 150 150 120 1002 300 17 3 20
2022097N04148 2022 22 WP MM MALAKAS 2022-04-12 09:00:00 NR 15.9350 135.205 PROVISIONAL 1125 1125 P_____________ WP022022 15.9350 135.205 88 961 2 170 160 150 130 1003 300 18 4 44
2022097N04148 2022 22 WP MM MALAKAS 2022-04-12 12:00:00 NR 16.1000 135.400 PROVISIONAL 1153 1153 O_____________ tcvitals WP022022 16.1000 135.400 93 958 2 175 170 150 140 1004 300 20 6 43
2022097N04148 2022 22 WP MM MALAKAS 2022-04-12 15:00:00 NR 16.3775 135.635 PROVISIONAL 1185 1185 P_____________ WP022022 16.3775 135.635 93 957 2 172 175 152 142 1004 300 22 8 39
2022097N04148 2022 22 WP MM MALAKAS 2022-04-12 18:00:00 NR 16.7000 135.900 PROVISIONAL 1228 1228 O_____________ tcvitals WP022022 16.7000 135.900 93 957 2 170 180 155 145 1004 300 25 8 38
2022097N04148 2022 22 WP MM MALAKAS 2022-04-12 21:00:00 NR 16.9999 136.143 PROVISIONAL 1260 1260 P_____________ WP022022 16.9999 136.143 99 953 3 182 195 162 142 1004 300 23 8 39
2022097N04148 2022 22 WP MM MALAKAS 2022-04-13 00:00:00 NR 17.3000 136.400 PROVISIONAL 1303 1303 O_____________ tcvitals WP022022 17.3000 136.400 105 950 3 195 210 170 140 1005 300 22 8 42
2022097N04148 2022 22 WP MM MALAKAS 2022-04-13 03:00:00 NR 17.5775 136.693 PROVISIONAL 1346 1346 P_____________ WP022022 17.5775 136.693 110 944 3 210 220 170 157 1004 315 19 8 44
2022097N04148 2022 22 WP MM MALAKAS 2022-04-13 06:00:00 NR 17.9000 137.000 PROVISIONAL 1389 1389 O_____________ tcvitals WP022022 17.9000 137.000 115 939 4 225 230 170 175 1003 330 17 10 40
2022097N04148 2022 22 WP MM MALAKAS 2022-04-13 09:00:00 NR 18.3276 137.345 PROVISIONAL 1437 1437 P_____________ WP022022 18.3276 137.345 115 939 4 222 227 170 175 1003 330 17 11 32
2022097N04148 2022 22 WP MM MALAKAS 2022-04-13 12:00:00 NR 18.8000 137.600 PROVISIONAL 1491 1488 O_____________ tcvitals WP022022 18.8000 137.600 115 939 4 220 225 170 175 1003 330 17 10 15
2022097N04148 2022 22 WP MM MALAKAS 2022-04-13 15:00:00 NR 19.2499 137.616 PROVISIONAL 1488 1439 P_____________ WP022022 19.2499 137.616 115 939 4 260 245 175 160 1004 367 15 9 0
2022097N04148 2022 22 WP MM MALAKAS 2022-04-13 18:00:00 NR 19.7000 137.600 PROVISIONAL 1439 1404 O_____________ tcvitals WP022022 19.7000 137.600 115 939 4 300 265 180 145 1005 405 14 9 9
2022097N04148 2022 22 WP MM MALAKAS 2022-04-13 21:00:00 NR 20.1275 137.763 PROVISIONAL 1409 1371 P_____________ WP022022 20.1275 137.763 110 943 3 285 255 180 152 1005 405 9 10 23
2022097N04148 2022 22 WP MM MALAKAS 2022-04-14 00:00:00 NR 20.6000 138.000 PROVISIONAL 1371 1324 O_____________ tcvitals WP022022 20.6000 138.000 105 948 3 270 245 180 160 1005 405 5 11 22
2022097N04148 2022 22 WP MM MALAKAS 2022-04-14 03:00:00 NR 21.1849 138.228 PROVISIONAL 1324 1282 P_____________ WP022022 21.1849 138.228 102 950 3 260 240 170 155 1005 385 5 13 21
2022097N04148 2022 22 WP MM MALAKAS 2022-04-14 06:00:00 NR 21.8000 138.500 PROVISIONAL 1282 1246 O_____________ tcvitals WP022022 21.8000 138.500 99 952 3 250 235 160 150 1005 365 5 13 24
2022097N04148 2022 22 WP MM MALAKAS 2022-04-14 09:00:00 NR 22.3722 138.798 PROVISIONAL 1243 1218 P_____________ WP022022 22.3722 138.798 99 952 3 247 215 162 150 1005 370 5 13 30
2022097N04148 2022 22 WP MM MALAKAS 2022-04-14 12:00:00 NR 22.9000 139.200 PROVISIONAL 1218 1200 O_____________ tcvitals WP022022 22.9000 139.200 99 952 3 245 195 165 150 1005 375 5 13 48
2022097N04148 2022 22 WP MM MALAKAS 2022-04-14 15:00:00 NR 23.2458 139.838 PROVISIONAL 1203 1161 P_____________ WP022022 23.2458 139.838 94 956 2 200 177 167 135 1005 375 9 14 51
2022097N04148 2022 22 WP MM MALAKAS 2022-04-14 18:00:00 NR 23.8000 140.400 PROVISIONAL 1161 1066 O_____________ tcvitals WP022022 23.8000 140.400 89 961 2 155 160 170 120 1005 375 14 18 23
2022097N04148 2022 22 WP MM MALAKAS 2022-04-14 21:00:00 NR 24.8845 140.613 PROVISIONAL 1056 926 P_____________ WP022022 24.8845 140.613 76 968 1 187 195 172 132 1005 375 14 25 4
2022097N04148 2022 22 WP MM MALAKAS 2022-04-15 00:00:00 NR 26.3000 140.600 PROVISIONAL 917 O_____________ tcvitals WP022022 26.3000 140.600 64 975 1 220 230 175 145 1005 375 14 28 360

デジタル台風データ・検索

IBTrACS Databaseについて

本データベースは、米国NOAAが公開する1842年以降の世界の熱帯低気圧のベストトラックデータアーカイブInternational Best Track Archive for Climate Stewardship (IBTrACS)を、ウェブで閲覧しやすい形式に変換したものです。

最終更新日:2022-05-24